createdAt,value
2024-01-20T00:02:20.935Z,38.47
2024-01-20T00:05:24.166Z,38.51
2024-01-20T00:08:27.699Z,38.58
2024-01-20T00:11:30.581Z,38.46
2024-01-20T00:14:34.829Z,38.29
2024-01-20T00:17:38.375Z,38.38
2024-01-20T00:20:41.476Z,38.41
2024-01-20T00:23:44.540Z,38.27
2024-01-20T00:26:48.281Z,38.44
2024-01-20T00:29:52.758Z,38.15
2024-01-20T00:32:55.787Z,38.32
2024-01-20T00:35:58.915Z,38.33
2024-01-20T00:39:01.674Z,38.19
2024-01-20T00:42:04.544Z,38.29
2024-01-20T00:45:09.864Z,38.22
2024-01-20T00:48:12.686Z,38.32
2024-01-20T00:51:15.462Z,37.61
2024-01-20T00:54:18.382Z,38.17
2024-01-20T00:57:21.134Z,38.57
2024-01-20T01:00:27.473Z,38.72
2024-01-20T01:03:30.284Z,38.33
2024-01-20T01:06:33.230Z,38.79
2024-01-20T01:09:36.144Z,38.77
2024-01-20T01:12:38.895Z,38.59
2024-01-20T01:15:43.211Z,38.81
2024-01-20T01:18:46.000Z,38.89
2024-01-20T01:21:48.809Z,38.62
2024-01-20T01:24:51.714Z,39.06
2024-01-20T01:27:54.424Z,38.88
2024-01-20T01:30:58.532Z,39.12
2024-01-20T01:34:01.298Z,39.17
2024-01-20T01:37:04.231Z,39.12
2024-01-20T01:40:07.853Z,39.04
2024-01-20T01:43:10.691Z,39.16
2024-01-20T01:46:15.415Z,39.21
2024-01-20T01:49:18.635Z,39.04
2024-01-20T01:52:23.097Z,39.17
2024-01-20T01:55:26.688Z,39.45
2024-01-20T01:58:29.778Z,39.29
2024-01-20T02:01:34.041Z,39.27
2024-01-20T02:04:36.848Z,39.20
2024-01-20T02:07:41.253Z,39.28
2024-01-20T02:10:44.277Z,39.51
2024-01-20T02:13:47.530Z,39.54
2024-01-20T02:16:51.729Z,39.63
2024-01-20T02:19:54.636Z,39.79
2024-01-20T02:22:58.778Z,39.67
2024-01-20T02:26:01.606Z,39.56
2024-01-20T02:29:04.431Z,39.59
2024-01-20T02:32:07.446Z,39.43
2024-01-20T02:35:10.702Z,39.61
2024-01-20T02:38:14.885Z,39.68
2024-01-20T02:41:17.622Z,39.77
2024-01-20T02:44:20.544Z,39.80
2024-01-20T02:47:23.392Z,39.64
2024-01-20T02:50:26.409Z,39.81
2024-01-20T02:53:31.006Z,40.08
2024-01-20T02:56:33.793Z,39.94
2024-01-20T02:59:36.547Z,40.06
2024-01-20T03:02:39.833Z,40.15
2024-01-20T03:05:42.937Z,40.13
2024-01-20T03:08:47.217Z,40.23
2024-01-20T03:11:50.351Z,40.17
2024-01-20T03:14:53.376Z,40.09
2024-01-20T03:17:56.395Z,40.24
2024-01-20T03:20:59.422Z,40.05
2024-01-20T03:24:03.991Z,40.43
2024-01-20T03:27:06.867Z,40.49
2024-01-20T03:30:13.513Z,40.17
2024-01-20T03:33:16.564Z,40.06
2024-01-20T03:36:19.574Z,39.91
2024-01-20T03:39:23.854Z,39.51
2024-01-20T03:42:26.837Z,39.67
2024-01-20T03:45:29.823Z,39.51
2024-01-20T03:48:33.268Z,39.32
2024-01-20T03:51:36.280Z,39.03
2024-01-20T03:54:40.865Z,38.94
2024-01-20T03:57:44.245Z,38.81
2024-01-20T04:00:47.223Z,38.64
2024-01-20T04:03:50.318Z,38.61
2024-01-20T04:06:53.301Z,38.59
2024-01-20T04:09:57.604Z,38.58
2024-01-20T04:13:00.466Z,38.35
2024-01-20T04:16:03.644Z,38.39
2024-01-20T04:19:06.648Z,38.40
2024-01-20T04:22:09.516Z,38.47
2024-01-20T04:25:14.115Z,38.35
2024-01-20T04:28:16.928Z,38.37
2024-01-20T04:31:19.812Z,38.35
2024-01-20T04:34:22.638Z,38.14
2024-01-20T04:37:25.533Z,38.21
2024-01-20T04:40:29.892Z,38.28
2024-01-20T04:43:32.739Z,38.23
2024-01-20T04:46:35.578Z,38.09
2024-01-20T04:49:38.502Z,38.21
2024-01-20T04:52:41.483Z,38.14
2024-01-20T04:55:45.944Z,38.06
2024-01-20T04:58:48.809Z,38.11
2024-01-20T05:01:51.741Z,38.14
2024-01-20T05:04:54.562Z,38.19
2024-01-20T05:07:57.350Z,38.38
2024-01-20T05:11:01.699Z,38.44
2024-01-20T05:14:05.019Z,38.59
2024-01-20T05:17:07.927Z,38.58
2024-01-20T05:20:14.561Z,38.93
2024-01-20T05:23:17.401Z,38.85
2024-01-20T05:26:21.623Z,38.95
2024-01-20T05:29:24.453Z,38.82
2024-01-20T05:32:27.660Z,39.02
2024-01-20T05:35:30.590Z,39.22
2024-01-20T05:38:33.406Z,39.15
2024-01-20T05:41:37.693Z,39.39
2024-01-20T05:44:41.171Z,39.53
2024-01-20T05:47:44.046Z,39.56
2024-01-20T05:50:48.363Z,39.34
2024-01-20T05:53:52.420Z,39.43
2024-01-20T05:56:56.689Z,39.33
2024-01-20T05:59:59.803Z,39.42
2024-01-20T06:03:02.725Z,39.40
2024-01-20T06:06:06.335Z,39.40
2024-01-20T06:09:09.552Z,39.51
2024-01-20T06:12:14.749Z,39.53
2024-01-20T06:15:17.724Z,39.53
2024-01-20T06:18:20.682Z,39.77
2024-01-20T06:21:24.045Z,39.61
2024-01-20T06:24:26.943Z,39.63
2024-01-20T06:27:31.725Z,39.63
2024-01-20T06:30:34.670Z,39.71
2024-01-20T06:33:37.872Z,39.77
2024-01-20T06:36:40.900Z,39.94
2024-01-20T06:39:43.693Z,39.87
2024-01-20T06:42:48.003Z,39.87
2024-01-20T06:45:50.874Z,39.93
2024-01-20T06:48:53.789Z,39.90
2024-01-20T06:51:56.639Z,40.10
2024-01-20T06:54:59.464Z,39.99
2024-01-20T06:58:04.476Z,40.05
2024-01-20T07:01:07.381Z,40.04
2024-01-20T07:04:10.716Z,40.14
2024-01-20T07:07:14.192Z,40.13
2024-01-20T07:10:17.295Z,40.14
2024-01-20T07:13:21.582Z,40.24
2024-01-20T07:16:24.748Z,40.24
2024-01-20T07:19:27.617Z,40.22
2024-01-20T07:22:30.450Z,40.41
2024-01-20T07:25:37.619Z,40.35
2024-01-20T07:28:41.949Z,40.53
2024-01-20T07:31:45.209Z,40.34
2024-01-20T07:34:48.163Z,40.34
2024-01-20T07:37:51.079Z,40.42
2024-01-20T07:40:54.941Z,40.42
2024-01-20T07:43:59.349Z,40.34
2024-01-20T07:47:02.227Z,40.50
2024-01-20T07:50:05.394Z,40.45
2024-01-20T07:53:08.286Z,40.42
2024-01-20T07:56:12.867Z,40.54
2024-01-20T07:59:18.100Z,40.68
2024-01-20T08:02:20.956Z,40.47
2024-01-20T08:05:23.744Z,40.32
2024-01-20T08:08:26.508Z,40.44
2024-01-20T08:11:29.278Z,40.62
2024-01-20T08:14:33.387Z,40.55
2024-01-20T08:17:36.216Z,40.67
2024-01-20T08:20:39.053Z,40.76
2024-01-20T08:23:41.998Z,40.42
2024-01-20T08:26:46.805Z,40.58
2024-01-20T08:29:51.030Z,40.77
2024-01-20T08:32:53.866Z,40.64
2024-01-20T08:35:56.904Z,40.77
2024-01-20T08:38:59.721Z,40.62
2024-01-20T08:42:02.741Z,40.81
2024-01-20T08:45:07.759Z,40.77
2024-01-20T08:48:10.894Z,40.82
2024-01-20T08:51:13.710Z,40.69
2024-01-20T08:54:17.176Z,40.81
2024-01-20T08:57:20.101Z,40.77
2024-01-20T09:00:24.575Z,40.56
2024-01-20T09:03:27.515Z,40.45
2024-01-20T09:06:30.528Z,40.59
2024-01-20T09:09:33.428Z,40.70
2024-01-20T09:12:36.383Z,40.58
2024-01-20T09:15:40.744Z,40.35
2024-01-20T09:18:43.740Z,40.11
2024-01-20T09:21:46.845Z,40.21
2024-01-20T09:24:49.659Z,40.03
2024-01-20T09:27:52.460Z,39.74
2024-01-20T09:30:56.573Z,39.53
2024-01-20T09:34:00.713Z,39.48
2024-01-20T09:37:04.271Z,39.34
2024-01-20T09:40:07.777Z,39.24
2024-01-20T09:43:10.653Z,39.13
2024-01-20T09:46:14.803Z,39.17
2024-01-20T09:49:18.665Z,39.20
2024-01-20T09:52:27.067Z,38.89
2024-01-20T09:55:29.798Z,38.93
2024-01-20T09:58:34.893Z,38.82
2024-01-20T10:01:39.550Z,38.81
2024-01-20T10:04:44.481Z,38.65
2024-01-20T10:07:47.304Z,38.79
2024-01-20T10:10:50.384Z,38.54
2024-01-20T10:13:53.267Z,38.70
2024-01-20T10:16:58.348Z,38.61
2024-01-20T10:20:01.283Z,38.45
2024-01-20T10:23:04.548Z,38.52
2024-01-20T10:26:07.695Z,38.59
2024-01-20T10:29:10.724Z,38.43
2024-01-20T10:32:14.957Z,38.39
2024-01-20T10:35:17.825Z,38.26
2024-01-20T10:38:21.384Z,38.37
2024-01-20T10:41:26.066Z,38.30
2024-01-20T10:44:30.127Z,38.36
2024-01-20T10:47:37.983Z,38.38
2024-01-20T10:50:43.198Z,38.28
2024-01-20T10:53:48.917Z,38.23
2024-01-20T10:56:51.656Z,38.22
2024-01-20T10:59:55.606Z,38.14
2024-01-20T11:03:00.337Z,38.27
2024-01-20T11:06:03.672Z,37.92
2024-01-20T11:09:06.541Z,38.27
2024-01-20T11:12:09.608Z,38.33
2024-01-20T11:15:18.967Z,38.14
2024-01-20T11:18:23.937Z,38.35
2024-01-20T11:21:26.864Z,38.51
2024-01-20T11:24:39.635Z,38.05
2024-01-20T11:27:46.053Z,38.62
2024-01-20T11:30:50.025Z,37.96
2024-01-20T11:33:55.017Z,38.53
2024-01-20T11:36:59.955Z,38.44
2024-01-20T11:40:06.896Z,38.62
2024-01-20T11:43:10.718Z,38.74
2024-01-20T11:46:19.801Z,38.40
2024-01-20T11:49:24.259Z,38.29
2024-01-20T11:52:27.468Z,38.16
2024-01-20T11:55:30.338Z,38.21
2024-01-20T11:58:33.432Z,38.15
2024-01-20T12:01:36.249Z,38.05
2024-01-20T12:04:40.589Z,38.54
2024-01-20T12:07:43.514Z,38.05
2024-01-20T12:10:47.278Z,38.12
2024-01-20T12:13:50.482Z,38.12
2024-01-20T12:16:53.286Z,38.16
2024-01-20T12:19:57.876Z,38.42
2024-01-20T12:23:02.021Z,38.44
2024-01-20T12:26:12.171Z,38.46
2024-01-20T12:29:14.980Z,38.69
2024-01-20T12:32:17.820Z,38.68
2024-01-20T12:35:21.947Z,38.66
2024-01-20T12:38:24.645Z,38.67
2024-01-20T12:41:27.991Z,38.81
2024-01-20T12:44:31.281Z,38.79
2024-01-20T12:47:34.048Z,39.04
2024-01-20T12:50:39.250Z,38.95
2024-01-20T12:53:43.165Z,39.06
2024-01-20T12:56:47.095Z,39.09
2024-01-20T12:59:50.032Z,39.01
2024-01-20T13:02:52.831Z,39.05
2024-01-20T13:05:57.010Z,39.16
2024-01-20T13:08:59.895Z,39.06
2024-01-20T13:12:02.886Z,38.92
2024-01-20T13:15:06.484Z,38.68
2024-01-20T13:18:09.797Z,38.37
2024-01-20T13:21:14.552Z,38.43
2024-01-20T13:24:17.500Z,38.40
2024-01-20T13:27:22.477Z,38.66
2024-01-20T13:30:25.357Z,38.38
2024-01-20T13:33:28.235Z,38.34
2024-01-20T13:36:32.597Z,38.29
2024-01-20T13:39:35.539Z,38.35
2024-01-20T13:42:39.845Z,38.25
2024-01-20T13:45:43.710Z,37.76
2024-01-20T13:48:49.288Z,37.96
2024-01-20T13:51:53.997Z,37.91
2024-01-20T13:54:56.872Z,37.81
2024-01-20T13:57:59.659Z,38.12
2024-01-20T14:01:04.734Z,37.27
2024-01-20T14:04:08.115Z,39.04
2024-01-20T14:07:12.526Z,38.32
2024-01-20T14:10:15.878Z,38.22
2024-01-20T14:13:18.579Z,38.16
2024-01-20T14:16:22.353Z,38.20
2024-01-20T14:19:25.773Z,38.36
2024-01-20T14:22:31.028Z,38.39
2024-01-20T14:25:33.890Z,38.21
2024-01-20T14:28:37.645Z,38.20
2024-01-20T14:31:46.985Z,38.31
2024-01-20T14:34:49.974Z,37.95
2024-01-20T14:37:54.540Z,38.25
2024-01-20T14:40:57.835Z,38.05
2024-01-20T14:44:00.614Z,38.37
2024-01-20T14:47:03.609Z,38.26
2024-01-20T14:50:08.278Z,38.41
2024-01-20T14:53:15.638Z,38.39
2024-01-20T14:56:18.612Z,38.40
2024-01-20T14:59:21.425Z,38.49
2024-01-20T15:02:24.217Z,38.31
2024-01-20T15:05:27.144Z,38.32
2024-01-20T15:08:31.359Z,38.29
2024-01-20T15:11:34.102Z,38.33
2024-01-20T15:14:37.005Z,38.45
2024-01-20T15:17:39.918Z,38.09
2024-01-20T15:20:42.760Z,37.91
2024-01-20T15:23:46.926Z,38.57
2024-01-20T15:26:49.975Z,38.29
2024-01-20T15:29:52.758Z,37.87
2024-01-20T15:32:55.665Z,37.81
2024-01-20T15:35:58.632Z,38.42
2024-01-20T15:39:03.103Z,38.43
2024-01-20T15:42:06.021Z,38.82
2024-01-20T15:45:09.457Z,38.73
2024-01-20T15:48:12.460Z,38.71
2024-01-20T15:51:15.390Z,38.91
2024-01-20T15:54:22.753Z,39.34
2024-01-20T15:57:25.539Z,39.29
2024-01-20T16:00:30.191Z,39.07
2024-01-20T16:03:33.316Z,39.19
2024-01-20T16:06:36.451Z,39.36
2024-01-20T16:09:40.706Z,39.48
2024-01-20T16:12:43.704Z,39.32
2024-01-20T16:15:46.623Z,37.25
2024-01-20T16:18:49.574Z,39.52
2024-01-20T16:21:52.978Z,39.57
2024-01-20T16:24:57.155Z,39.53
2024-01-20T16:27:59.968Z,39.58
2024-01-20T16:31:02.740Z,39.46
2024-01-20T16:34:06.018Z,39.52
2024-01-20T16:37:09.113Z,39.43
2024-01-20T16:40:13.353Z,39.72
2024-01-20T16:43:16.122Z,39.59
2024-01-20T16:46:19.133Z,39.60
2024-01-20T16:49:22.476Z,39.65
2024-01-20T16:52:25.293Z,39.57
2024-01-20T16:55:29.659Z,39.57
2024-01-20T16:58:32.512Z,39.65
2024-01-20T17:01:35.266Z,39.73
2024-01-20T17:04:38.441Z,39.74
2024-01-20T17:07:42.689Z,39.79
2024-01-20T17:10:47.420Z,39.73
2024-01-20T17:13:50.297Z,39.83
2024-01-20T17:16:53.176Z,39.76
2024-01-20T17:19:55.919Z,40.02
2024-01-20T17:23:00.293Z,40.03
2024-01-20T17:26:05.534Z,40.05
2024-01-20T17:29:08.304Z,40.24
2024-01-20T17:32:11.063Z,39.99
2024-01-20T17:35:14.452Z,40.19
2024-01-20T17:38:17.258Z,40.11
2024-01-20T17:41:21.378Z,40.17
2024-01-20T17:44:24.211Z,40.18
2024-01-20T17:47:27.358Z,40.05
2024-01-20T17:50:30.162Z,39.89
2024-01-20T17:53:35.184Z,39.82
2024-01-20T17:56:40.533Z,39.66
2024-01-20T17:59:44.330Z,39.40
2024-01-20T18:02:48.321Z,39.40
2024-01-20T18:05:51.260Z,39.37
2024-01-20T18:08:54.275Z,39.18
2024-01-20T18:12:00.302Z,39.01
2024-01-20T18:15:04.214Z,38.97
2024-01-20T18:18:07.227Z,38.87
2024-01-20T18:21:10.934Z,38.82
2024-01-20T18:24:13.917Z,38.69
2024-01-20T18:27:18.085Z,38.80
2024-01-20T18:30:20.977Z,38.73
2024-01-20T18:33:23.948Z,38.61
2024-01-20T18:36:26.805Z,38.68
2024-01-20T18:39:29.695Z,38.58
2024-01-20T18:42:34.000Z,38.57
2024-01-20T18:45:36.944Z,38.57
2024-01-20T18:48:39.900Z,38.42
2024-01-20T18:51:42.903Z,38.45
2024-01-20T18:54:46.020Z,38.54
2024-01-20T18:57:50.235Z,38.29
2024-01-20T19:01:02.476Z,38.34
2024-01-20T19:04:05.486Z,38.37
2024-01-20T19:07:08.523Z,38.43
2024-01-20T19:10:11.705Z,38.19
2024-01-20T19:13:15.889Z,38.35
2024-01-20T19:16:18.799Z,38.27
2024-01-20T19:19:21.733Z,38.42
2024-01-20T19:22:24.624Z,38.39
2024-01-20T19:25:27.550Z,38.21
2024-01-20T19:28:31.712Z,38.26
2024-01-20T19:31:34.479Z,38.31
2024-01-20T19:34:37.457Z,38.38
2024-01-20T19:37:40.827Z,38.20
2024-01-20T19:40:43.735Z,38.29
2024-01-20T19:43:47.920Z,38.64
2024-01-20T19:46:50.725Z,38.65
2024-01-20T19:49:54.721Z,38.92
2024-01-20T19:52:59.496Z,38.89
2024-01-20T19:56:05.539Z,38.76
2024-01-20T19:59:10.131Z,38.88
2024-01-20T20:02:13.770Z,38.95
2024-01-20T20:05:17.067Z,38.95
2024-01-20T20:08:23.986Z,39.27
2024-01-20T20:11:26.918Z,39.24
2024-01-20T20:14:30.997Z,39.10
2024-01-20T20:17:34.160Z,39.12
2024-01-20T20:20:37.073Z,39.20
2024-01-20T20:23:39.837Z,39.31
2024-01-20T20:26:43.679Z,39.41
2024-01-20T20:29:48.177Z,39.35
2024-01-20T20:32:51.019Z,39.44
2024-01-20T20:35:53.926Z,39.55
2024-01-20T20:38:56.823Z,39.60
2024-01-20T20:41:59.680Z,39.64
2024-01-20T20:45:04.683Z,39.73
2024-01-20T20:48:09.401Z,39.69
2024-01-20T20:51:12.680Z,39.70
2024-01-20T20:54:15.599Z,39.60
2024-01-20T20:57:19.596Z,39.75
2024-01-20T21:00:23.962Z,39.73
2024-01-20T21:03:27.425Z,39.78
2024-01-20T21:06:30.318Z,39.62
2024-01-20T21:09:33.285Z,39.20
2024-01-20T21:12:36.225Z,39.23
2024-01-20T21:15:41.943Z,38.96
2024-01-20T21:18:45.090Z,38.78
2024-01-20T21:21:49.060Z,39.17
2024-01-20T21:24:52.193Z,39.14
2024-01-20T21:27:54.984Z,38.68
2024-01-20T21:31:01.369Z,38.60
2024-01-20T21:34:04.330Z,38.90
2024-01-20T21:37:07.323Z,38.77
2024-01-20T21:40:10.626Z,38.69
2024-01-20T21:43:13.538Z,38.53
2024-01-20T21:46:17.941Z,38.38
2024-01-20T21:49:20.909Z,38.40
2024-01-20T21:52:23.766Z,38.28
2024-01-20T21:55:26.689Z,38.27
2024-01-20T21:58:29.545Z,38.12
2024-01-20T22:01:37.394Z,37.88
2024-01-20T22:04:40.244Z,38.13
2024-01-20T22:07:43.951Z,37.91
2024-01-20T22:10:47.322Z,37.97
2024-01-20T22:13:50.092Z,38.06
2024-01-20T22:16:54.250Z,38.00
2024-01-20T22:19:57.815Z,37.89
2024-01-20T22:23:06.039Z,38.02
2024-01-20T22:26:09.008Z,37.96
2024-01-20T22:29:19.402Z,38.22
2024-01-20T22:32:32.403Z,38.12
2024-01-20T22:35:35.756Z,38.30
2024-01-20T22:38:38.547Z,38.30
2024-01-20T22:41:41.380Z,38.11
2024-01-20T22:44:44.170Z,38.50
2024-01-20T22:47:49.005Z,38.67
2024-01-20T22:50:52.170Z,38.72
2024-01-20T22:53:54.978Z,38.68
2024-01-20T22:56:57.768Z,38.37
2024-01-20T23:00:00.549Z,38.35
2024-01-20T23:03:04.983Z,38.38
2024-01-20T23:06:08.632Z,38.10
2024-01-20T23:09:15.575Z,38.14
2024-01-20T23:12:20.581Z,38.09
2024-01-20T23:15:23.785Z,38.07
2024-01-20T23:18:28.226Z,38.02
2024-01-20T23:21:31.062Z,38.03
2024-01-20T23:24:33.820Z,37.93
2024-01-20T23:27:37.444Z,38.03
2024-01-20T23:30:41.913Z,37.80
2024-01-20T23:33:46.202Z,37.83
2024-01-20T23:36:49.130Z,37.89
2024-01-20T23:39:51.982Z,37.74
2024-01-20T23:42:54.916Z,37.98
2024-01-20T23:45:58.144Z,38.06
2024-01-20T23:49:02.290Z,38.09
2024-01-20T23:52:05.379Z,37.99
2024-01-20T23:55:08.477Z,37.73
2024-01-20T23:58:11.224Z,38.12
